Hovedside
METAR-TAF:

METAR-TAF

Lufthavner :

Molde lufthavn. Årø

Molde, Norge

breddegrad: 62-45N, lengdegrad: 007-16E, høyde over havet: 0 m

Gjeldene værobservasjon

Denne rapporten ble laget for 35 minutter siden, klokken 10:20 UTC
Vind 9 kt fra Øst-nordøst
Temperatur 10°C
Luftfuktighet 82%
Trykk 987 hPa
Sikt 10 km eller mer
Få skyer i en høyde av 2900 ft
Brutte skyer i en høyde av 3700 ft
Brutte skyer i en høyde av 6000 ft
lette regnbyger

METAR: ENML 211020Z 06009KT 9999 -SHRA FEW029 BKN037 BKN060 10/07 Q0987

Tid: 12:55 (10:55 UTC)

Varsel

Denne rapporten ble laget for 2 timer og 55 minutter siden, klokken 08:00 UTC
Varsel gyldig fra 21. klokken 09 UTC til 21. klokken 18 UTC
Vind 8 kt fra Øst-nordøst
Sikt 10 km eller mer
Få skyer i en høyde av 1200 ft
Brutte skyer i en høyde av 5000 ft

TAF: ENML 210800Z 2109/2118 07008KT 9999 FEW012 BKN050

Værobservasjoner og værvarsel for over 4000 flyplasser (METAR- og TAF-rapporter).

Tilgjengelige stasjoner er representert av de røde og gule prikkene på kartet.

Hold musepekeren over prikken for å se navnet på stasjonen.

Klikk så for å se værobservasjoner og -varsler.

For å forandre kartet kan du klikke på den grønne knappen med svart kryss for å zoome inn, på den grønne knappen med strek for å zoome ut, eller på de grønne pilene for å se tilstøtende kart.


METAR-TAF: